createdAt,value
2019-06-08T00:05:02.956Z,100684.00
2019-06-08T00:10:09.105Z,100674.30
2019-06-08T00:15:14.537Z,100676.35
2019-06-08T00:20:20.048Z,100683.75
2019-06-08T00:25:25.563Z,100681.87
2019-06-08T00:30:31.007Z,100700.47
2019-06-08T00:35:36.520Z,100689.64
2019-06-08T00:40:42.011Z,100700.80
2019-06-08T00:45:47.501Z,100709.38
2019-06-08T00:50:52.931Z,100710.79
2019-06-08T00:55:58.411Z,100716.86
2019-06-08T01:01:03.881Z,100737.45
2019-06-08T01:06:09.359Z,100738.08
2019-06-08T01:11:14.929Z,100746.27
2019-06-08T01:16:20.962Z,100756.23
2019-06-08T01:21:27.681Z,100755.23
2019-06-08T01:26:33.316Z,100761.77
2019-06-08T01:31:38.864Z,100753.53
2019-06-08T01:36:44.406Z,100766.73
2019-06-08T01:41:49.886Z,100763.19
2019-06-08T01:46:55.345Z,100769.63
2019-06-08T01:52:00.820Z,100773.89
2019-06-08T01:57:06.395Z,100774.12
2019-06-08T02:02:11.831Z,100774.96
2019-06-08T02:07:17.393Z,100787.83
2019-06-08T02:12:22.950Z,100789.23
2019-06-08T02:17:29.379Z,100796.15
2019-06-08T02:22:35.178Z,100801.19
2019-06-08T02:27:40.832Z,100802.47
2019-06-08T02:32:46.268Z,100813.50
2019-06-08T02:37:51.674Z,100830.14
2019-06-08T02:42:57.174Z,100834.38
2019-06-08T02:48:02.649Z,100838.41
2019-06-08T02:53:08.134Z,100863.84
2019-06-08T02:58:13.587Z,100865.64
2019-06-08T03:03:19.254Z,100869.89
2019-06-08T03:08:24.738Z,100879.61
2019-06-08T03:13:31.208Z,100889.73
2019-06-08T03:18:38.203Z,100901.27
2019-06-08T03:23:44.346Z,100907.02
2019-06-08T03:28:49.816Z,100910.77
2019-06-08T03:33:56.625Z,100904.86
2019-06-08T03:39:02.390Z,100915.68
2019-06-08T03:44:07.915Z,100908.77
2019-06-08T03:49:13.354Z,100912.77
2019-06-08T03:54:18.842Z,100932.54
2019-06-08T03:59:24.301Z,100936.24
2019-06-08T04:04:29.742Z,100935.42
2019-06-08T04:09:35.161Z,100940.66
2019-06-08T04:14:42.189Z,100945.67
2019-06-08T04:20:06.393Z,100939.30
2019-06-08T04:24:54.984Z,100951.83
2019-06-08T04:30:00.422Z,100959.24
2019-06-08T04:35:05.986Z,100984.59
2019-06-08T04:40:11.471Z,100974.67
2019-06-08T04:45:16.904Z,100977.14
2019-06-08T04:50:24.028Z,100988.45
2019-06-08T04:55:29.520Z,100989.98
2019-06-08T05:00:34.992Z,100990.91
2019-06-08T05:05:41.047Z,101015.78
2019-06-08T05:10:47.416Z,101019.63
2019-06-08T05:15:53.059Z,101015.70
2019-06-08T05:20:58.510Z,101021.36
2019-06-08T05:26:03.958Z,101032.16
2019-06-08T05:31:09.424Z,101018.48
2019-06-08T05:36:14.892Z,101039.39
2019-06-08T05:41:23.366Z,101038.45
2019-06-08T05:46:29.219Z,101042.02
2019-06-08T05:51:34.681Z,101041.42
2019-06-08T05:56:40.202Z,101045.67
2019-06-08T06:01:46.761Z,101048.34
2019-06-08T06:06:52.361Z,101071.86
2019-06-08T06:11:57.844Z,101087.30
2019-06-08T06:17:03.314Z,101094.37
2019-06-08T06:22:08.733Z,101107.58
2019-06-08T06:27:14.229Z,101104.27
2019-06-08T06:32:19.759Z,101107.59
2019-06-08T06:37:25.266Z,101114.31
2019-06-08T06:42:30.757Z,101135.86
2019-06-08T06:47:36.214Z,101127.78
2019-06-08T06:52:42.768Z,101130.88
2019-06-08T06:57:49.251Z,101145.17
2019-06-08T07:02:54.814Z,101147.46
2019-06-08T07:08:00.275Z,101150.13
2019-06-08T07:13:05.743Z,101163.97
2019-06-08T07:18:11.218Z,101172.56
2019-06-08T07:23:16.702Z,101160.59
2019-06-08T07:28:22.532Z,101167.50
2019-06-08T07:33:27.966Z,101168.66
2019-06-08T07:38:33.392Z,101165.30
2019-06-08T07:43:38.842Z,101173.86
2019-06-08T07:48:44.320Z,101173.62
2019-06-08T07:53:50.375Z,101190.23
2019-06-08T07:58:57.317Z,101191.31
2019-06-08T08:04:02.889Z,101198.34
2019-06-08T08:09:09.116Z,101210.20
2019-06-08T08:14:14.718Z,101217.52
2019-06-08T08:19:20.297Z,101211.80
2019-06-08T08:24:27.178Z,101204.03
2019-06-08T08:29:32.957Z,101217.24
2019-06-08T08:34:38.401Z,101229.42
2019-06-08T08:39:43.868Z,101246.89
2019-06-08T08:44:51.010Z,101241.14
2019-06-08T08:49:58.723Z,101254.53
2019-06-08T08:55:04.033Z,101270.43
2019-06-08T09:00:09.591Z,101271.70
2019-06-08T09:05:15.061Z,101284.63
2019-06-08T09:10:20.684Z,101287.78
2019-06-08T09:15:28.774Z,101280.59
2019-06-08T09:20:33.446Z,101264.57
2019-06-08T09:25:40.687Z,101273.13
2019-06-08T09:30:48.223Z,101283.70
2019-06-08T09:35:54.726Z,101282.08
2019-06-08T09:41:03.390Z,101303.38
2019-06-08T09:46:09.155Z,101293.27
2019-06-08T09:51:14.727Z,101301.73
2019-06-08T09:56:20.230Z,101308.59
2019-06-08T10:01:25.675Z,101325.22
2019-06-08T10:06:31.095Z,101322.05
2019-06-08T10:11:37.991Z,101326.41
2019-06-08T10:16:43.613Z,101333.13
2019-06-08T10:21:49.063Z,101335.23
2019-06-08T10:26:55.150Z,101334.85
2019-06-08T10:32:01.573Z,101341.02
2019-06-08T10:37:12.710Z,101336.35
2019-06-08T10:42:14.317Z,101345.14
2019-06-08T10:47:19.760Z,101349.88
2019-06-08T10:52:27.984Z,101348.38
2019-06-08T10:57:32.551Z,101348.14
2019-06-08T11:02:40.623Z,101349.09
2019-06-08T11:07:47.880Z,101345.00
2019-06-08T11:12:52.564Z,101365.37
2019-06-08T11:18:01.696Z,101364.70
2019-06-08T11:23:05.676Z,101365.39
2019-06-08T11:28:14.837Z,101373.00
2019-06-08T11:33:18.817Z,101369.15
2019-06-08T11:38:24.273Z,101382.66
2019-06-08T11:43:29.789Z,101381.97
2019-06-08T11:48:39.207Z,101405.99
2019-06-08T11:53:42.604Z,101405.25
2019-06-08T11:58:48.562Z,101403.63
2019-06-08T12:03:54.232Z,101401.12
2019-06-08T12:09:00.289Z,101410.69
2019-06-08T12:14:08.113Z,101410.70
2019-06-08T12:19:16.846Z,101408.84
2019-06-08T12:24:20.587Z,101407.23
2019-06-08T12:29:28.220Z,101406.30
2019-06-08T12:34:33.350Z,101413.11
2019-06-08T12:39:39.345Z,101409.00
2019-06-08T12:44:44.819Z,101406.27
2019-06-08T12:49:50.279Z,101406.85
2019-06-08T12:55:03.505Z,101420.50
2019-06-08T13:00:03.042Z,101401.88
2019-06-08T13:05:12.522Z,101405.44
2019-06-08T13:10:15.734Z,101409.95
2019-06-08T13:15:21.954Z,101420.42
2019-06-08T13:20:28.353Z,101415.28
2019-06-08T13:25:40.197Z,101425.80
2019-06-08T13:30:41.155Z,101419.75
2019-06-08T13:35:48.050Z,101448.26
2019-06-08T13:40:53.564Z,101447.59
2019-06-08T13:45:59.018Z,101443.98
2019-06-08T13:51:04.545Z,101448.88
2019-06-08T13:56:10.111Z,101449.34
2019-06-08T14:01:15.593Z,101446.98
2019-06-08T14:06:22.192Z,101451.23
2019-06-08T14:11:28.613Z,101447.58
2019-06-08T14:16:34.271Z,101436.34
2019-06-08T14:21:41.719Z,101434.95
2019-06-08T14:26:48.590Z,101432.02
2019-06-08T14:31:54.359Z,101428.98
2019-06-08T14:36:59.924Z,101453.77
2019-06-08T14:42:05.364Z,101459.48
2019-06-08T14:47:16.887Z,101463.02
2019-06-08T14:52:24.166Z,101448.36
2019-06-08T14:57:30.898Z,101453.59
2019-06-08T15:02:37.945Z,101448.72
2019-06-08T15:07:43.674Z,101454.34
2019-06-08T15:12:49.232Z,101458.17
2019-06-08T15:17:54.806Z,101461.69
2019-06-08T15:23:00.224Z,101462.59
2019-06-08T15:28:08.022Z,101470.22
2019-06-08T15:33:13.098Z,101466.41
2019-06-08T15:38:20.854Z,101474.09
2019-06-08T15:43:29.168Z,101477.80
2019-06-08T15:48:34.252Z,101475.00
2019-06-08T15:53:40.408Z,101479.15
2019-06-08T15:58:48.523Z,101485.75
2019-06-08T16:03:53.208Z,101482.16
2019-06-08T16:08:58.640Z,101488.94
2019-06-08T16:14:04.113Z,101500.98
2019-06-08T16:19:09.625Z,101505.38
2019-06-08T16:24:15.269Z,101514.70
2019-06-08T16:29:20.869Z,101514.28
2019-06-08T16:34:27.300Z,101507.12
2019-06-08T16:39:32.896Z,101512.94
2019-06-08T16:44:38.658Z,101514.34
2019-06-08T16:49:44.209Z,101521.23
2019-06-08T16:54:49.724Z,101530.75
2019-06-08T16:59:55.182Z,101537.42
2019-06-08T17:05:00.703Z,101545.97
2019-06-08T17:10:06.334Z,101558.92
2019-06-08T17:15:11.771Z,101587.28
2019-06-08T17:20:17.234Z,101652.94
2019-06-08T17:25:22.700Z,101639.72
2019-06-08T17:30:28.152Z,101625.25
2019-06-08T17:35:35.520Z,101618.89
2019-06-08T17:40:42.265Z,101614.48
2019-06-08T17:45:48.131Z,101617.56
2019-06-08T17:50:53.604Z,101619.51
2019-06-08T17:55:59.088Z,101625.89
2019-06-08T18:01:04.574Z,101634.17
2019-06-08T18:06:10.045Z,101643.39
2019-06-08T18:11:17.370Z,101643.08
2019-06-08T18:16:22.715Z,101654.41
2019-06-08T18:21:28.361Z,101661.94
2019-06-08T18:26:34.358Z,101663.42
2019-06-08T18:31:42.491Z,101669.67
2019-06-08T18:36:47.934Z,101663.72
2019-06-08T18:41:53.557Z,101673.80
2019-06-08T18:46:59.164Z,101671.45
2019-06-08T18:52:04.594Z,101682.61
2019-06-08T18:57:11.384Z,101679.53
2019-06-08T19:02:18.018Z,101687.96
2019-06-08T19:07:23.525Z,101688.99
2019-06-08T19:12:28.994Z,101679.42
2019-06-08T19:17:34.463Z,101681.82
2019-06-08T19:22:43.802Z,101698.31
2019-06-08T19:27:52.989Z,101702.81
2019-06-08T19:32:54.615Z,101720.18
2019-06-08T19:38:00.054Z,101730.57
2019-06-08T19:43:07.566Z,101732.47
2019-06-08T19:48:12.805Z,101740.12
2019-06-08T19:53:18.439Z,101741.98
2019-06-08T19:58:23.848Z,101744.22
2019-06-08T20:03:29.372Z,101751.59
2019-06-08T20:08:34.856Z,101751.06
2019-06-08T20:13:41.211Z,101759.14
2019-06-08T20:18:48.651Z,101765.91
2019-06-08T20:23:53.906Z,101769.19
2019-06-08T20:29:12.191Z,101778.08
2019-06-08T20:34:07.038Z,101781.80
2019-06-08T20:39:12.637Z,101777.78
2019-06-08T20:44:18.191Z,101786.67
2019-06-08T20:49:23.624Z,101795.67
2019-06-08T20:54:29.123Z,101805.84
2019-06-08T20:59:34.572Z,101808.41
2019-06-08T21:04:40.111Z,101809.26
2019-06-08T21:09:49.602Z,101812.14
2019-06-08T21:14:55.417Z,101819.78
2019-06-08T21:20:01.027Z,101819.38
2019-06-08T21:25:08.649Z,101820.13
2019-06-08T21:30:21.605Z,101818.67
2019-06-08T21:35:21.066Z,101820.56
2019-06-08T21:40:28.111Z,101831.22
2019-06-08T21:45:33.804Z,101834.03
2019-06-08T21:50:39.269Z,101837.46
2019-06-08T21:55:44.779Z,101842.30
2019-06-08T22:00:51.062Z,101843.66
2019-06-08T22:05:58.904Z,101841.30
2019-06-08T22:11:03.910Z,101838.38
2019-06-08T22:16:09.345Z,101843.39
2019-06-08T22:21:17.911Z,101843.07
2019-06-08T22:26:21.988Z,101839.15
2019-06-08T22:31:27.760Z,101840.76
2019-06-08T22:36:33.674Z,101846.71
2019-06-08T22:41:39.250Z,101851.42
2019-06-08T22:46:44.717Z,101850.72
2019-06-08T22:51:50.125Z,101850.75
2019-06-08T22:56:55.611Z,101849.52
2019-06-08T23:02:04.096Z,101853.31
2019-06-08T23:07:10.790Z,101844.30
2019-06-08T23:12:18.040Z,101845.95
2019-06-08T23:17:22.702Z,101846.72
2019-06-08T23:22:28.259Z,101845.28
2019-06-08T23:27:33.761Z,101845.45
2019-06-08T23:32:39.272Z,101850.11
2019-06-08T23:37:44.721Z,101847.27
2019-06-08T23:42:50.184Z,101838.34
2019-06-08T23:47:58.350Z,101836.74
2019-06-08T23:53:02.881Z,101840.36
2019-06-08T23:58:11.190Z,101844.41
